Home > Products > Valid Products > TAF

000
FTUS42 KGSP 050900 AAA
TAFCLT
TAF AMD
KCLT 050900Z 0509/0606 36003KT P6SM SCT150 BKN250
     FM051600 24005KT P6SM SCT060 BKN250
     FM052100 23007KT P6SM BKN070 PROB30 0523/0603 4SM TSRA BKN040CB
     FM060300 18005KT P6SM BKN080 PROB30 0603/0606 4SM TSRA
      BKN040CB=



000
FTUS42 KGSP 050531
TAFCLT
TAF
KCLT 050531Z 0506/0606 01003KT P6SM BKN250
     FM051600 24005KT P6SM SCT060 BKN250
     FM052100 23007KT P6SM BKN070 PROB30 0523/0603 4SM TSRA BKN040CB
     FM060300 18005KT P6SM BKN080 PROB30 0603/0606 4SM TSRA
      BKN040CB=



000
FTUS42 KGSP 050531
TAFGSP
TAF
KGSP 050531Z 0506/0606 34003KT P6SM BKN250
     FM051600 15004KT P6SM SCT070 BKN250
     FM051900 22008KT P6SM BKN070 PROB30 0523/0603 4SM TSRA BKN040CB
     FM060300 20005KT P6SM BKN070 PROB30 0603/0606 4SM TSRA
      BKN040CB=



000
FTUS42 KGSP 050531
TAFAVL
TAF
KAVL 050531Z 0506/0606 34003KT P6SM BKN250
     FM051600 20006KT P6SM SCT050 BKN250
     FM051900 32007KT P6SM BKN050 PROB30 0519/0601 4SM TSRA BKN040CB
     FM060100 34005KT P6SM BKN060 PROB30 0601/0606 4SM TSRA
      BKN040CB=



000
FTUS42 KGSP 050531
TAFCLT
TAF
KCLT 050531Z 0506/0606 01003KT P6SM BKN250
     FM051600 24005KT P6SM SCT060 BKN250
     FM052100 23007KT P6SM BKN070 PROB30 0523/0603 4SM TSRA BKN040CB
     FM060300 18005KT P6SM BKN080 PROB30 0603/0606 4SM TSRA
      BKN040CB=



000
FTUS42 KGSP 050531
TAFCLT
TAF
KCLT 050531Z 0506/0606 01003KT P6SM BKN250
     FM051600 24005KT P6SM SCT060 BKN250
     FM052100 23007KT P6SM BKN070 PROB30 0523/0603 4SM TSRA BKN040CB
     FM060300 18005KT P6SM BKN080 PROB30 0603/0606 4SM TSRA
      BKN040CB=



000
FTUS42 KGSP 050531
TAFAVL
TAF
KAVL 050531Z 0506/0606 34003KT P6SM BKN250
     FM051600 20006KT P6SM SCT050 BKN250
     FM051900 32007KT P6SM BKN050 PROB30 0519/0601 4SM TSRA BKN040CB
     FM060100 34005KT P6SM BKN060 PROB30 0601/0606 4SM TSRA
      BKN040CB=



000
FTUS42 KGSP 050531
TAFGSP
TAF
KGSP 050531Z 0506/0606 34003KT P6SM BKN250
     FM051600 15004KT P6SM SCT070 BKN250
     FM051900 22008KT P6SM BKN070 PROB30 0523/0603 4SM TSRA BKN040CB
     FM060300 20005KT P6SM BKN070 PROB30 0603/0606 4SM TSRA
      BKN040CB=



000
FTUS42 KGSP 042337
TAFCLT
TAF
KCLT 042337Z 0500/0524 01004KT P6SM SCT150 BKN250
     FM051600 24007KT P6SM SCT060=



000
FTUS42 KGSP 042337
TAFGSP
TAF
KGSP 042337Z 0500/0524 33003KT P6SM SCT150 SCT250
     FM051600 22006KT P6SM SCT060=



000
FTUS42 KGSP 042337
TAFAVL
TAF
KAVL 042337Z 0500/0524 18005KT P6SM FEW250
     FM050200 32003KT P6SM BKN250
     FM051700 VRB04KT P6SM SCT060
     FM052000 32007KT P6SM BKN050 PROB30 0520/0523 4SM TSRA
      BKN040CB=



000
FTUS42 KGSP 042337
TAFCLT
TAF
KCLT 042337Z 0500/0524 01004KT P6SM SCT150 BKN250
     FM051600 24007KT P6SM SCT060=



000
FTUS42 KGSP 042337
TAFAVL
TAF
KAVL 042337Z 0500/0524 18005KT P6SM FEW250
     FM050200 32003KT P6SM BKN250
     FM051700 VRB04KT P6SM SCT060
     FM052000 32007KT P6SM BKN050 PROB30 0520/0523 4SM TSRA
      BKN040CB=



000
FTUS42 KGSP 042058 AAA
TAFCLT
TAF AMD
KCLT 042058Z 0421/0518 29009KT P6SM FEW050 SCT250
     FM050200 02003KT P6SM SCT250
     FM051500 21005KT P6SM FEW050 SCT250=



000
FTUS42 KGSP 042058 AAA
TAFCLT
TAF AMD
KCLT 042058Z 0421/0518 29009KT P6SM FEW050 SCT250
     FM050200 02003KT P6SM SCT250
     FM051500 21005KT P6SM FEW050 SCT250=



000
FTUS42 KGSP 042034 AAB
TAFGSP
TAF AMD
KGSP 042034Z 0421/0518 24005KT P6SM FEW060 SCT250
      TEMPO 0421/0423 35010G18KT
     FM050300 VRB03KT P6SM SCT250
     FM051500 22005KT P6SM FEW060 SCT250=



000
FTUS42 KGSP 042016 AAA
TAFAVL
TAF AMD
KAVL 042016Z 0420/0518 34006KT P6SM SCT060
      TEMPO 0420/0421 21010G16KT
     FM050900 32003KT 6SM BR SCT150
     FM051300 30004KT P6SM SCT050 BKN200=



000
FTUS42 KGSP 042016 AAA
TAFAVL
TAF AMD
KAVL 042016Z 0420/0518 34006KT P6SM SCT060
      TEMPO 0420/0421 21010G16KT
     FM050900 32003KT 6SM BR SCT150
     FM051300 30004KT P6SM SCT050 BKN200=



000
FTUS42 KGSP 041736
TAFCLT
TAF
KCLT 041736Z 0418/0518 30005KT P6SM FEW050 SCT250
     FM050200 02003KT P6SM SCT250
     FM051500 21005KT P6SM FEW050 SCT250=



000
FTUS42 KGSP 041736
TAFAVL
TAF
KAVL 041736Z 0418/0518 34006KT P6SM SCT060
     FM050900 32003KT 6SM BR SCT150
     FM051300 30004KT P6SM SCT050 BKN200=



000
FTUS42 KGSP 041736
TAFCLT
TAF
KCLT 041736Z 0418/0518 30005KT P6SM FEW050 SCT250
     FM050200 02003KT P6SM SCT250
     FM051500 21005KT P6SM FEW050 SCT250=



000
FTUS42 KGSP 041736
TAFAVL
TAF
KAVL 041736Z 0418/0518 34006KT P6SM SCT060
     FM050900 32003KT 6SM BR SCT150
     FM051300 30004KT P6SM SCT050 BKN200=



000
FTUS42 KGSP 041736
TAFGSP
TAF
KGSP 041736Z 0418/0518 24005KT P6SM FEW060 SCT250
     FM050300 VRB03KT P6SM SCT250
     FM051500 22005KT P6SM FEW060 SCT250=



000
FTUS42 KGSP 041450 AAB
TAFCLT
TAF AMD
KCLT 041450Z 0415/0512 24004KT P6SM FEW050 SCT250
     FM041800 30005KT P6SM SCT060 BKN250
     FM050200 00000KT P6SM FEW060 BKN250=



000
FTUS42 KGSP 041450 AAB
TAFCLT
TAF AMD
KCLT 041450Z 0415/0512 24004KT P6SM FEW050 SCT250
     FM041800 30005KT P6SM SCT060 BKN250
     FM050200 00000KT P6SM FEW060 BKN250=



000
FTUS42 KGSP 041450 AAB
TAFCLT
TAF AMD
KCLT 041450Z 0415/0512 24004KT P6SM FEW050 SCT250
     FM041800 30005KT P6SM SCT060 BKN250
     FM050200 00000KT P6SM FEW060 BKN250=



000
FTUS42 KGSP 041331 AAA
TAFCLT
TAF AMD
KCLT 041331Z 0414/0512 25004KT P6SM FEW050 SCT250
     FM041800 30005KT P6SM SCT060 BKN250
     FM050200 00000KT P6SM FEW060 BKN250=



000
FTUS42 KGSP 041122
TAFGSP
TAF
KGSP 041122Z 0412/0512 20003KT P6SM BKN250
     FM041500 21004KT P6SM FEW050 BKN250
     FM041800 22005KT P6SM SCT060 BKN250
     FM050400 00000KT P6SM BKN250=



000
FTUS42 KGSP 041122
TAFAVL
TAF
KAVL 041122Z 0412/0512 33004KT P6SM BKN250
     FM041600 33006KT P6SM SCT050 BKN250
     FM050300 00000KT P6SM FEW060 BKN250=



000
FTUS42 KGSP 041122
TAFCLT
TAF
KCLT 041122Z 0412/0512 14004KT P6SM BKN250
     FM041500 19004KT P6SM FEW050 BKN250
     FM041800 20005KT P6SM SCT060 BKN250
     FM050200 00000KT P6SM FEW060 BKN250=



000
FTUS42 KGSP 041122
TAFCLT
TAF
KCLT 041122Z 0412/0512 14004KT P6SM BKN250
     FM041500 19004KT P6SM FEW050 BKN250
     FM041800 20005KT P6SM SCT060 BKN250
     FM050200 00000KT P6SM FEW060 BKN250=



000
FTUS42 KGSP 041122
TAFAVL
TAF
KAVL 041122Z 0412/0512 33004KT P6SM BKN250
     FM041600 33006KT P6SM SCT050 BKN250
     FM050300 00000KT P6SM FEW060 BKN250=



000
FTUS42 KGSP 040901 AAA
TAFCLT
TAF AMD
KCLT 040901Z 0409/0506 00000KT P6SM BKN250
     FM041500 18004KT P6SM FEW050
     FM041800 19005KT P6SM SCT060
     FM050200 00000KT P6SM SCT060=



000
FTUS42 KGSP 040901 AAA
TAFCLT
TAF AMD
KCLT 040901Z 0409/0506 00000KT P6SM BKN250
     FM041500 18004KT P6SM FEW050
     FM041800 19005KT P6SM SCT060
     FM050200 00000KT P6SM SCT060=



000
FTUS42 KGSP 040901 AAA
TAFCLT
TAF AMD
KCLT 040901Z 0409/0506 00000KT P6SM BKN250
     FM041500 18004KT P6SM FEW050
     FM041800 19005KT P6SM SCT060
     FM050200 00000KT P6SM SCT060=



000
FTUS42 KGSP 040901 AAA
TAFCLT
TAF AMD
KCLT 040901Z 0409/0506 00000KT P6SM BKN250
     FM041500 18004KT P6SM FEW050
     FM041800 19005KT P6SM SCT060
     FM050200 00000KT P6SM SCT060=



000
FTUS42 KGSP 040535
TAFCLT
TAF
KCLT 040535Z 0406/0506 17005KT P6SM SCT250
     FM040900 00000KT P6SM SCT250
     FM041500 18004KT P6SM FEW050
     FM041800 19005KT P6SM SCT060
     FM050200 00000KT P6SM SCT060=



000
FTUS42 KGSP 040535
TAFAVL
TAF
KAVL 040535Z 0406/0506 33004KT P6SM SCT250
     FM041500 33006KT P6SM SCT050 PROB30 0419/0422 4SM TSRA BKN040CB
     FM050200 34003KT P6SM SCT060=



000
FTUS42 KGSP 040535
TAFGSP
TAF
KGSP 040535Z 0406/0506 19004KT P6SM SCT250
     FM041500 22004KT P6SM FEW050
     FM041800 22005KT P6SM SCT060
     FM050200 00000KT P6SM SCT060=



000
FTUS42 KGSP 040535
TAFAVL
TAF
KAVL 040535Z 0406/0506 33004KT P6SM SCT250
     FM041500 33006KT P6SM SCT050 PROB30 0419/0422 4SM TSRA BKN040CB
     FM050200 34003KT P6SM SCT060=



000
FTUS42 KGSP 040535
TAFCLT
TAF
KCLT 040535Z 0406/0506 17005KT P6SM SCT250
     FM040900 00000KT P6SM SCT250
     FM041500 18004KT P6SM FEW050
     FM041800 19005KT P6SM SCT060
     FM050200 00000KT P6SM SCT060=



000
FTUS42 KGSP 040535
TAFAVL
TAF
KAVL 040535Z 0406/0506 33004KT P6SM SCT250
     FM041500 33006KT P6SM SCT050 PROB30 0419/0422 4SM TSRA BKN040CB
     FM050200 34003KT P6SM SCT060=



000
FTUS42 KGSP 040535
TAFCLT
TAF
KCLT 040535Z 0406/0506 17005KT P6SM SCT250
     FM040900 00000KT P6SM SCT250
     FM041500 18004KT P6SM FEW050
     FM041800 19005KT P6SM SCT060
     FM050200 00000KT P6SM SCT060=



000
FTUS42 KGSP 032334
TAFAVL
TAF
KAVL 032334Z 0400/0424 00000KT P6SM FEW250
     FM041500 32005KT P6SM SCT060 PROB30 0419/0422 4SM TSRA
      BKN040CB=



000
FTUS42 KGSP 032334
TAFGSP
TAF
KGSP 032334Z 0400/0424 18004KT P6SM FEW250
     FM041500 23005KT P6SM FEW060=



000
FTUS42 KGSP 032334
TAFCLT
TAF
KCLT 032334Z 0400/0424 16005KT P6SM FEW070
     FM041400 22005KT P6SM FEW050=



000
FTUS42 KGSP 032334
TAFAVL
TAF
KAVL 032334Z 0400/0424 00000KT P6SM FEW250
     FM041500 32005KT P6SM SCT060 PROB30 0419/0422 4SM TSRA
      BKN040CB=



000
FTUS42 KGSP 032334
TAFCLT
TAF
KCLT 032334Z 0400/0424 16005KT P6SM FEW070
     FM041400 22005KT P6SM FEW050=



000
FTUS42 KGSP 032334
TAFCLT
TAF
KCLT 032334Z 0400/0424 16005KT P6SM FEW070
     FM041400 22005KT P6SM FEW050=



000
FTUS42 KGSP 032334
TAFGSP
TAF
KGSP 032334Z 0400/0424 18004KT P6SM FEW250
     FM041500 23005KT P6SM FEW060=



000
FTUS42 KGSP 032334
TAFAVL
TAF
KAVL 032334Z 0400/0424 00000KT P6SM FEW250
     FM041500 32005KT P6SM SCT060 PROB30 0419/0422 4SM TSRA
      BKN040CB=



000
FTUS42 KGSP 032334
TAFAVL
TAF
KAVL 032334Z 0400/0424 00000KT P6SM FEW250
     FM041500 32005KT P6SM SCT060 PROB30 0419/0422 4SM TSRA
      BKN040CB=



000
FTUS42 KGSP 032056 AAA
TAFCLT
TAF AMD
KCLT 032056Z 0321/0418 16004KT P6SM SCT060
     FM040900 00000KT 5SM BR FEW250
     FM041400 32004KT P6SM SCT050=



000
FTUS42 KGSP 032056 AAA
TAFCLT
TAF AMD
KCLT 032056Z 0321/0418 16004KT P6SM SCT060
     FM040900 00000KT 5SM BR FEW250
     FM041400 32004KT P6SM SCT050=



000
FTUS42 KGSP 031736
TAFGSP
TAF
KGSP 031736Z 0318/0418 19005KT P6SM FEW060 SCT250
     FM040800 00000KT 6SM BR FEW250
     FM041400 30004KT P6SM FEW050=



000
FTUS42 KGSP 031736
TAFCLT
TAF
KCLT 031736Z 0318/0418 20004KT P6SM SCT050
     FM040900 00000KT 5SM BR FEW250
     FM041400 32004KT P6SM SCT050=



000
FTUS42 KGSP 031736
TAFCLT
TAF
KCLT 031736Z 0318/0418 20004KT P6SM SCT050
     FM040900 00000KT 5SM BR FEW250
     FM041400 32004KT P6SM SCT050=



000
FTUS42 KGSP 031736
TAFAVL
TAF
KAVL 031736Z 0318/0418 32004KT P6SM SCT050
     FM040000 00000KT P6SM FEW250
     FM040800 00000KT 3SM BR FEW010 SCT200
     FM041400 34007KT P6SM SCT045=



000
FTUS42 KGSP 031736
TAFAVL
TAF
KAVL 031736Z 0318/0418 32004KT P6SM SCT050
     FM040000 00000KT P6SM FEW250
     FM040800 00000KT 3SM BR FEW010 SCT200
     FM041400 34007KT P6SM SCT045=



000
FTUS42 KGSP 031500 AAB
TAFCLT
TAF AMD
KCLT 031500Z 0315/0412 17005KT P6SM FEW025 SCT250
     FM031700 18005KT P6SM SCT060
     FM040400 16003KT P6SM SCT250=



000
FTUS42 KGSP 031500 AAB
TAFCLT
TAF AMD
KCLT 031500Z 0315/0412 17005KT P6SM FEW025 SCT250
     FM031700 18005KT P6SM SCT060
     FM040400 16003KT P6SM SCT250=



000
FTUS42 KGSP 031500 AAB
TAFCLT
TAF AMD
KCLT 031500Z 0315/0412 17005KT P6SM FEW025 SCT250
     FM031700 18005KT P6SM SCT060
     FM040400 16003KT P6SM SCT250=



000
FTUS42 KGSP 031500 AAB
TAFCLT
TAF AMD
KCLT 031500Z 0315/0412 17005KT P6SM FEW025 SCT250
     FM031700 18005KT P6SM SCT060
     FM040400 16003KT P6SM SCT250=



000
FTUS42 KGSP 031304 AAA
TAFCLT
TAF AMD
KCLT 031304Z 0313/0412 16003KT P6SM FEW010 SCT250
     FM031600 18004KT P6SM SCT045
     FM032000 19005KT P6SM SCT060
     FM040400 16003KT P6SM SCT250=



000
FTUS42 KGSP 031304 AAA
TAFCLT
TAF AMD
KCLT 031304Z 0313/0412 16003KT P6SM FEW010 SCT250
     FM031600 18004KT P6SM SCT045
     FM032000 19005KT P6SM SCT060
     FM040400 16003KT P6SM SCT250=



000
FTUS42 KGSP 031304 AAA
TAFCLT
TAF AMD
KCLT 031304Z 0313/0412 16003KT P6SM FEW010 SCT250
     FM031600 18004KT P6SM SCT045
     FM032000 19005KT P6SM SCT060
     FM040400 16003KT P6SM SCT250=



000
FTUS42 KGSP 031304 AAA
TAFCLT
TAF AMD
KCLT 031304Z 0313/0412 16003KT P6SM FEW010 SCT250
     FM031600 18004KT P6SM SCT045
     FM032000 19005KT P6SM SCT060
     FM040400 16003KT P6SM SCT250=



000
FTUS42 KGSP 031124
TAFCLT
TAF
KCLT 031124Z 0312/0412 16003KT P6SM SCT010 BKN250
      TEMPO 0312/0314 BKN010
     FM031400 16003KT P6SM SCT025
     FM031600 18004KT P6SM SCT045
     FM032000 19005KT P6SM SCT060
     FM040400 16003KT P6SM SCT250=



000
FTUS42 KGSP 031124
TAFCLT
TAF
KCLT 031124Z 0312/0412 16003KT P6SM SCT010 BKN250
      TEMPO 0312/0314 BKN010
     FM031400 16003KT P6SM SCT025
     FM031600 18004KT P6SM SCT045
     FM032000 19005KT P6SM SCT060
     FM040400 16003KT P6SM SCT250=



000
FTUS42 KGSP 031124
TAFAVL
TAF
KAVL 031124Z 0312/0412 34004KT P6SM SCT040 BKN250
     FM031800 33007KT P6SM SCT050
     FM040300 00000KT P6SM SCT250=



000
FTUS42 KGSP 031124
TAFGSP
TAF
KGSP 031124Z 0312/0412 02003KT P6SM SCT012 BKN250
     FM031400 06004KT P6SM SCT025
     FM031600 06004KT P6SM SCT045
     FM032000 06004KT P6SM SCT060
     FM040300 00000KT P6SM SCT250=



000
FTUS42 KGSP 031124
TAFCLT
TAF
KCLT 031124Z 0312/0412 16003KT P6SM SCT010 BKN250
      TEMPO 0312/0314 BKN010
     FM031400 16003KT P6SM SCT025
     FM031600 18004KT P6SM SCT045
     FM032000 19005KT P6SM SCT060
     FM040400 16003KT P6SM SCT250=



000
FTUS42 KGSP 031124
TAFAVL
TAF
KAVL 031124Z 0312/0412 34004KT P6SM SCT040 BKN250
     FM031800 33007KT P6SM SCT050
     FM040300 00000KT P6SM SCT250=



000
FTUS42 KGSP 030857 AAA
TAFCLT
TAF AMD
KCLT 030857Z 0309/0406 12003KT P6SM FEW015 SCT250
     FM031300 19003KT P6SM SCT045
     FM031800 21005KT P6SM SCT060
     FM040000 17005KT P6SM SCT070=



000
FTUS42 KGSP 030857 AAA
TAFCLT
TAF AMD
KCLT 030857Z 0309/0406 12003KT P6SM FEW015 SCT250
     FM031300 19003KT P6SM SCT045
     FM031800 21005KT P6SM SCT060
     FM040000 17005KT P6SM SCT070=



000
FTUS42 KGSP 030531
TAFAVL
TAF
KAVL 030531Z 0306/0406 00000KT P6SM SCT250
      TEMPO 0310/0312 5SM BR
     FM031300 34004KT P6SM SCT040
     FM031800 34006KT P6SM SCT050
     FM040000 34003KT P6SM SCT060=



000
FTUS42 KGSP 030531
TAFCLT
TAF
KCLT 030531Z 0306/0406 17006KT P6SM SCT250
     FM031000 18003KT P6SM SCT015
     FM031300 19003KT P6SM SCT045
     FM031800 21005KT P6SM SCT060
     FM040000 17005KT P6SM SCT070=



000
FTUS42 KGSP 030531
TAFGSP
TAF
KGSP 030531Z 0306/0406 21003KT P6SM BKN250
     FM031300 21003KT P6SM SCT045
     FM031800 20004KT P6SM SCT060
     FM040000 21003KT P6SM SCT070=



000
FTUS42 KGSP 030531
TAFAVL
TAF
KAVL 030531Z 0306/0406 00000KT P6SM SCT250
      TEMPO 0310/0312 5SM BR
     FM031300 34004KT P6SM SCT040
     FM031800 34006KT P6SM SCT050
     FM040000 34003KT P6SM SCT060=



000
FTUS42 KGSP 030531
TAFCLT
TAF
KCLT 030531Z 0306/0406 17006KT P6SM SCT250
     FM031000 18003KT P6SM SCT015
     FM031300 19003KT P6SM SCT045
     FM031800 21005KT P6SM SCT060
     FM040000 17005KT P6SM SCT070=



000
FTUS42 KGSP 030531
TAFCLT
TAF
KCLT 030531Z 0306/0406 17006KT P6SM SCT250
     FM031000 18003KT P6SM SCT015
     FM031300 19003KT P6SM SCT045
     FM031800 21005KT P6SM SCT060
     FM040000 17005KT P6SM SCT070=



000
FTUS42 KGSP 030531
TAFGSP
TAF
KGSP 030531Z 0306/0406 21003KT P6SM BKN250
     FM031300 21003KT P6SM SCT045
     FM031800 20004KT P6SM SCT060
     FM040000 21003KT P6SM SCT070=



000
FTUS42 KGSP 030531
TAFAVL
TAF
KAVL 030531Z 0306/0406 00000KT P6SM SCT250
      TEMPO 0310/0312 5SM BR
     FM031300 34004KT P6SM SCT040
     FM031800 34006KT P6SM SCT050
     FM040000 34003KT P6SM SCT060=



000
FTUS42 KGSP 030531
TAFAVL
TAF
KAVL 030531Z 0306/0406 00000KT P6SM SCT250
      TEMPO 0310/0312 5SM BR
     FM031300 34004KT P6SM SCT040
     FM031800 34006KT P6SM SCT050
     FM040000 34003KT P6SM SCT060=



000
FTUS42 KGSP 030531
TAFCLT
TAF
KCLT 030531Z 0306/0406 17006KT P6SM SCT250
     FM031000 18003KT P6SM SCT015
     FM031300 19003KT P6SM SCT045
     FM031800 21005KT P6SM SCT060
     FM040000 17005KT P6SM SCT070=



000
FTUS42 KGSP 022332
TAFAVL
TAF
KAVL 022332Z 0300/0324 33003KT P6SM FEW090
      TEMPO 0310/0312 4SM BR
     FM031500 33006KT P6SM FEW050=



000
FTUS42 KGSP 022332
TAFAVL
TAF
KAVL 022332Z 0300/0324 33003KT P6SM FEW090
      TEMPO 0310/0312 4SM BR
     FM031500 33006KT P6SM FEW050=



000
FTUS42 KGSP 022332
TAFCLT
TAF
KCLT 022332Z 0300/0324 10004KT P6SM FEW080 SCT250
     FM031000 00000KT P6SM SCT017
     FM031300 18005KT P6SM SCT050=



000
FTUS42 KGSP 022332
TAFGSP
TAF
KGSP 022332Z 0300/0324 10004KT P6SM FEW080 SCT250
     FM031300 22004KT P6SM FEW045 SCT070=



000
FTUS42 KGSP 022332
TAFCLT
TAF
KCLT 022332Z 0300/0324 10004KT P6SM FEW080 SCT250
     FM031000 00000KT P6SM SCT017
     FM031300 18005KT P6SM SCT050=



000
FTUS42 KGSP 022332
TAFCLT
TAF
KCLT 022332Z 0300/0324 10004KT P6SM FEW080 SCT250
     FM031000 00000KT P6SM SCT017
     FM031300 18005KT P6SM SCT050=



000
FTUS42 KGSP 022332
TAFGSP
TAF
KGSP 022332Z 0300/0324 10004KT P6SM FEW080 SCT250
     FM031300 22004KT P6SM FEW045 SCT070=



000
FTUS42 KGSP 022332
TAFCLT
TAF
KCLT 022332Z 0300/0324 10004KT P6SM FEW080 SCT250
     FM031000 00000KT P6SM SCT017
     FM031300 18005KT P6SM SCT050=



000
FTUS42 KGSP 022332
TAFAVL
TAF
KAVL 022332Z 0300/0324 33003KT P6SM FEW090
      TEMPO 0310/0312 4SM BR
     FM031500 33006KT P6SM FEW050=



000
FTUS42 KGSP 022332
TAFAVL
TAF
KAVL 022332Z 0300/0324 33003KT P6SM FEW090
      TEMPO 0310/0312 4SM BR
     FM031500 33006KT P6SM FEW050=



000
FTUS42 KGSP 022056 AAA
TAFCLT
TAF AMD
KCLT 022056Z 0221/0318 05006KT P6SM SCT080
     FM030000 11004KT P6SM SCT060
     FM030900 00000KT P6SM SCT150
     FM031600 18005KT P6SM SCT045=



000
FTUS42 KGSP 022056 AAA
TAFCLT
TAF AMD
KCLT 022056Z 0221/0318 05006KT P6SM SCT080
     FM030000 11004KT P6SM SCT060
     FM030900 00000KT P6SM SCT150
     FM031600 18005KT P6SM SCT045=



000
FTUS42 KGSP 021734
TAFCLT
TAF
KCLT 021734Z 0218/0318 02007KT P6SM FEW070
     FM030000 11004KT P6SM SCT060
     FM030900 00000KT P6SM SCT150
     FM031600 18005KT P6SM SCT045=



000
FTUS42 KGSP 021734
TAFAVL
TAF
KAVL 021734Z 0218/0318 15003KT P6SM SCT045
     FM030100 34003KT P6SM SCT045
     FM030900 00000KT 4SM BR FEW150
     FM031200 00000KT P6SM FEW150
     FM031600 33006KT P6SM FEW045=



000
FTUS42 KGSP 021734
TAFGSP
TAF
KGSP 021734Z 0218/0318 07005KT P6SM FEW070
     FM030500 13004KT P6SM FEW150
     FM031600 20005KT P6SM SCT045=



000
FTUS42 KGSP 021734
TAFAVL
TAF
KAVL 021734Z 0218/0318 15003KT P6SM SCT045
     FM030100 34003KT P6SM SCT045
     FM030900 00000KT 4SM BR FEW150
     FM031200 00000KT P6SM FEW150
     FM031600 33006KT P6SM FEW045=



000
FTUS42 KGSP 021734
TAFCLT
TAF
KCLT 021734Z 0218/0318 02007KT P6SM FEW070
     FM030000 11004KT P6SM SCT060
     FM030900 00000KT P6SM SCT150
     FM031600 18005KT P6SM SCT045=



000
FTUS42 KGSP 021734
TAFCLT
TAF
KCLT 021734Z 0218/0318 02007KT P6SM FEW070
     FM030000 11004KT P6SM SCT060
     FM030900 00000KT P6SM SCT150
     FM031600 18005KT P6SM SCT045=



000
FTUS42 KGSP 021734
TAFAVL
TAF
KAVL 021734Z 0218/0318 15003KT P6SM SCT045
     FM030100 34003KT P6SM SCT045
     FM030900 00000KT 4SM BR FEW150
     FM031200 00000KT P6SM FEW150
     FM031600 33006KT P6SM FEW045=



000
FTUS42 KGSP 021734
TAFCLT
TAF
KCLT 021734Z 0218/0318 02007KT P6SM FEW070
     FM030000 11004KT P6SM SCT060
     FM030900 00000KT P6SM SCT150
     FM031600 18005KT P6SM SCT045=



000
FTUS42 KGSP 021734
TAFAVL
TAF
KAVL 021734Z 0218/0318 15003KT P6SM SCT045
     FM030100 34003KT P6SM SCT045
     FM030900 00000KT 4SM BR FEW150
     FM031200 00000KT P6SM FEW150
     FM031600 33006KT P6SM FEW045=



000
FTUS42 KGSP 021734
TAFGSP
TAF
KGSP 021734Z 0218/0318 07005KT P6SM FEW070
     FM030500 13004KT P6SM FEW150
     FM031600 20005KT P6SM SCT045=



000
FTUS42 KGSP 021644 AAB
TAFCLT
TAF AMD
KCLT 021644Z 0217/0312 02008KT P6SM FEW070
     FM030200 07004KT P6SM FEW060
     FM030700 15003KT P6SM FEW060=



000
FTUS42 KGSP 021458 AAA
TAFCLT
TAF AMD
KCLT 021458Z 0215/0312 02006KT P6SM FEW070
     FM030200 07004KT P6SM FEW060
     FM030700 15003KT P6SM FEW060=



000
FTUS42 KGSP 021458 AAA
TAFCLT
TAF AMD
KCLT 021458Z 0215/0312 02006KT P6SM FEW070
     FM030200 07004KT P6SM FEW060
     FM030700 15003KT P6SM FEW060=



000
FTUS42 KGSP 021458 AAA
TAFCLT
TAF AMD
KCLT 021458Z 0215/0312 02006KT P6SM FEW070
     FM030200 07004KT P6SM FEW060
     FM030700 15003KT P6SM FEW060=



000
FTUS42 KGSP 021122
TAFAVL
TAF
KAVL 021122Z 0212/0312 34003KT P6SM FEW045
     FM021500 14003KT P6SM SCT045
     FM030100 34003KT P6SM SCT045=



000
FTUS42 KGSP 021122
TAFCLT
TAF
KCLT 021122Z 0212/0312 02006KT P6SM FEW060
     FM030200 07004KT P6SM FEW060
     FM030700 15003KT P6SM FEW060=



000
FTUS42 KGSP 021122
TAFGSP
TAF
KGSP 021122Z 0212/0312 03005KT P6SM FEW060
     FM022000 07004KT P6SM FEW060=



000
FTUS42 KGSP 021122
TAFAVL
TAF
KAVL 021122Z 0212/0312 34003KT P6SM FEW045
     FM021500 14003KT P6SM SCT045
     FM030100 34003KT P6SM SCT045=



000
FTUS42 KGSP 021122
TAFCLT
TAF
KCLT 021122Z 0212/0312 02006KT P6SM FEW060
     FM030200 07004KT P6SM FEW060
     FM030700 15003KT P6SM FEW060=



000
FTUS42 KGSP 021122
TAFGSP
TAF
KGSP 021122Z 0212/0312 03005KT P6SM FEW060
     FM022000 07004KT P6SM FEW060=



000
FTUS42 KGSP 021122
TAFAVL
TAF
KAVL 021122Z 0212/0312 34003KT P6SM FEW045
     FM021500 14003KT P6SM SCT045
     FM030100 34003KT P6SM SCT045=



000
FTUS42 KGSP 021122
TAFCLT
TAF
KCLT 021122Z 0212/0312 02006KT P6SM FEW060
     FM030200 07004KT P6SM FEW060
     FM030700 15003KT P6SM FEW060=



000
FTUS42 KGSP 021122
TAFCLT
TAF
KCLT 021122Z 0212/0312 02006KT P6SM FEW060
     FM030200 07004KT P6SM FEW060
     FM030700 15003KT P6SM FEW060=



000
FTUS42 KGSP 021122
TAFAVL
TAF
KAVL 021122Z 0212/0312 34003KT P6SM FEW045
     FM021500 14003KT P6SM SCT045
     FM030100 34003KT P6SM SCT045=



    US Dept of Commerce
    National Oceanic and Atmospheric Administration
    National Weather Service
    1325 East West Highway
    Silver Spring, MD 20910
    Page Author: NWS Internet Services Team
Disclaimer
Information Quality
Credits
Glossary
Privacy Policy
Freedom of Information Act (FOIA)
About Us
Career Opportunities